• Join FlightAware (Why Join?)
  • Login
  • US Flag 
02:09PM EDT


 

Airport Tracker/Info


-or-


 

Live Flight TrackerFlight Track Log ✈ AAL1326 ✈ 01-May-2013 ✈ KMCI - KORD

Flight Track Log - Related Links

Times and Time Zones

All times are in EDT time to prevent confusion due to time zone crossing. See the AAL1326 flight status page for this flight to view local times or setup timezone preferences in your user account.

Time Position Orientation Groundspeed Altitude Reporting Facility
EDT Latitude Longitude Course Direction KTS MPH feet Rate Location/Type
04:28PM 39.4440 -94.5380 45° Northeast 280 322 8,200  Level FlightAware
04:29PM 39.5520 -94.3974 45° Northeast  Level FlightAware Approximate
04:29PM 39.4710 -94.4960 50° Northeast 299 344 9,500  Level FlightAware
04:30PM 39.5090 -94.4410 48° Northeast 325 374 11,400 2,520 Climbing FlightAware
04:30PM 39.5580 -94.3770 45° Northeast 360 414 13,100 2,820 Climbing FlightAware
04:31PM 39.6110 -94.3160 42° Northeast 372 428 15,400 3,360 Climbing FlightAware
04:32PM 39.6670 -94.2460 44° Northeast 383 441 17,900 3,060 Climbing FlightAware
04:32PM 39.7140 -94.1870 44° Northeast 393 452 19,800 2,760 Climbing FlightAware
04:33PM 39.7670 -94.1210 44° Northeast 406 467 21,600 2,700 Climbing FlightAware
04:34PM 39.8360 -94.0370 43° Northeast 418 481 23,700 2,640 Climbing FlightAware
04:35PM 39.8940 -93.9680 42° Northeast 426 490 25,400 2,520 Climbing FlightAware
04:35PM 39.9470 -93.8910 48° Northeast 422 486 27,300 2,820 Climbing FlightAware
04:36PM 39.9750 -93.7910 70° East 404 465 29,400 2,760 Climbing FlightAware
04:37PM 39.9980 -93.6990 72° East 400 460 31,000 1,800 Climbing FlightAware
04:37PM 40.0250 -93.5940 71° East 403 464 32,000 660 Climbing FlightAware
04:38PM 40.0480 -93.5010 72° East 404 465 32,000  Level FlightAware
04:39PM 40.0740 -93.3990 72° East 406 467 32,000 180 Level FlightAware
04:39PM 40.0980 -93.3050 72° East 409 471 32,300 720 Climbing FlightAware
04:40PM 40.1200 -93.2130 73° East 411 473 33,000 480 Climbing FlightAware
04:41PM 40.1440 -93.1180 72° East 409 471 33,000  Level FlightAware
04:42PM 40.1670 -93.0260 72° East 409 471 33,000  Level FlightAware
04:42PM 40.1960 -92.9060 72° East 404 465 33,000  Level FlightAware
04:43PM 40.2190 -92.8130 72° East 401 461 33,000  Level FlightAware
04:44PM 40.2410 -92.7210 73° East 401 461 33,000  Level FlightAware
04:44PM 40.2660 -92.6190 72° East 402 463 33,000  Level FlightAware
04:45PM 40.2890 -92.5260 72° East 403 464 33,000  Level FlightAware
04:46PM 40.3140 -92.4200 73° East 403 464 33,000  Level FlightAware
04:46PM 40.3350 -92.3360 72° East 404 465 33,000  Level FlightAware
04:47PM 40.3630 -92.2200 72° East 405 466 33,000  Level FlightAware
04:48PM 40.3820 -92.1410 72° East 405 466 33,000  Level FlightAware
04:49PM 40.4070 -92.0320 73° East 406 467 33,000  Level FlightAware
04:49PM 40.4310 -91.9340 72° East 406 467 33,000  Level FlightAware
04:50PM 40.4590 -91.8110 73° East 409 471 33,000  Level FlightAware
04:51PM 40.4800 -91.7230 73° East 409 471 33,000  Level FlightAware
04:52PM 40.5060 -91.6070 74° East 408 470 33,000  Level FlightAware
04:52PM 40.5230 -91.5340 73° East 408 470 33,000  Level FlightAware
04:53PM 40.5530 -91.4090 72° East 406 467 33,000  Level FlightAware
04:54PM 40.5940 -91.2870 66° East 410 472 33,000  Level FlightAware
04:55PM 40.6280 -91.1870 66° East 409 471 33,000  Level FlightAware
04:56PM 40.6710 -91.0630 65° Northeast 409 471 33,000 -180 Level FlightAware
04:56PM 40.7070 -90.9540 66° East 414 476 32,700 -720 Descending FlightAware
04:57PM 40.7330 -90.8770 66° East 413 475 32,100 -1,080 Descending FlightAware
04:58PM 40.7700 -90.7700 65° Northeast 406 467 31,300 -1,020 Descending FlightAware
04:58PM 40.8000 -90.6810 66° East 400 460 30,700 -1,020 Descending FlightAware
04:59PM 40.8440 -90.5470 66° East 394 453 29,600 -1,020 Descending FlightAware
05:00PM 40.8700 -90.4580 69° East 390 449 29,000 -960 Descending FlightAware
05:01PM 40.8770 -90.3620 84° East 380 437 28,300 -1,020 Descending FlightAware
05:01PM 40.8820 -90.2660 86° East 376 433 27,600 -600 Descending FlightAware
05:02PM 40.8870 -90.1960 85° East 376 433 27,600 -1,020 Level FlightAware
05:02PM 40.9070 -90.1470 62° Northeast 378 435 26,700 -1,620 Descending FlightAware
05:03PM 40.9480 -90.0590 58° Northeast 371 427 25,900 -1,080 Descending FlightAware
05:04PM 40.9840 -89.9790 59° Northeast 366 421 25,200 -1,020 Descending FlightAware
05:05PM 41.0320 -89.8710 59° Northeast 368 423 24,300 -720 Descending FlightAware
05:05PM 41.0700 -89.7880 59° Northeast 364 419 24,000 -240 Descending FlightAware
05:06PM 41.1000 -89.7210 59° Northeast 363 418 24,000  Level FlightAware
05:07PM 41.1400 -89.6330 59° Northeast 364 419 24,000 -360 Level FlightAware
05:07PM 41.1770 -89.5440 61° Northeast 364 419 23,500 -1,140 Descending FlightAware
05:08PM 41.2090 -89.4670 61° Northeast 370 426 22,400 -1,740 Descending FlightAware
05:09PM 41.2430 -89.3820 62° Northeast 365 420 21,100 -1,860 Descending FlightAware
05:10PM 41.2750 -89.3020 62° Northeast 359 413 19,800 -1,860 Descending FlightAware
05:10PM 41.3120 -89.2120 61° Northeast 354 407 18,500 -1,800 Descending FlightAware
05:11PM 41.3420 -89.1360 62° Northeast 349 402 17,300 -1,740 Descending FlightAware
05:12PM 41.3710 -89.0620 62° Northeast 344 396 16,200 -1,800 Descending FlightAware
05:12PM 41.4050 -88.9780 62° Northeast 340 391 14,800 -1,920 Descending FlightAware
05:13PM 41.4340 -88.9040 62° Northeast 332 382 13,500 -1,920 Descending FlightAware
05:14PM 41.4650 -88.8280 61° Northeast 325 374 12,100 -1,860 Descending FlightAware
05:14PM 41.4950 -88.7520 62° Northeast 321 369 10,900 -900 Descending FlightAware
05:15PM 41.5220 -88.6830 62° Northeast 315 362 10,900  Level FlightAware
05:16PM 41.5520 -88.6060 62° Northeast 316 364 10,900 -120 Level FlightAware
05:17PM 41.5800 -88.5380 61° Northeast 316 364 10,800 -600 Descending FlightAware
05:17PM 41.6130 -88.4600 60° Northeast 312 359 10,100 -960 Descending FlightAware
05:18PM 41.6340 -88.4230 53° Northeast 312 359 9,700 -1,140 Descending FlightAware
05:18PM 41.6610 -88.3790 51° Northeast 305 351 9,100 -1,200 Descending FlightAware
05:18PM 41.6710 -88.3670 42° Northeast 300 345 8,900 -960 Descending FlightAware
05:19PM 41.6930 -88.3560 20° North 305 351 8,700 -1,080 Descending FlightAware
05:19PM 41.7350 -88.3480 North 305 351 8,100 -780 Descending FlightAware
05:20PM 41.7690 -88.3410 North 290 334 8,000 -240 Descending FlightAware
05:20PM 41.8070 -88.3340 North 265 305 7,900 -300 Descending FlightAware
05:20PM 41.8190 -88.3320 North 261 300 7,800 -540 Descending FlightAware
05:21PM 41.8590 -88.3260 North 232 267 7,500 -720 Descending FlightAware
05:21PM 41.8830 -88.3220 North 215 247 7,100 -1,320 Descending FlightAware
05:22PM 41.9130 -88.3170 North 216 249 6,300 -1,500 Descending FlightAware
05:22PM 41.9400 -88.3100 11° North 219 252 5,600 -1,680 Descending FlightAware
05:22PM 41.9500 -88.3010 34° Northeast 214 246 5,200 -1,680 Descending FlightAware
05:23PM 41.9570 -88.2850 60° Northeast 199 229 4,900 -1,200 Descending FlightAware
05:23PM 41.9630 -88.2690 63° Northeast 193 222 4,600 -1,620 Descending FlightAware
05:23PM 41.9670 -88.2500 74° East 196 226 4,100 -1,620 Descending FlightAware
05:23PM 41.9680 -88.2330 85° East 192 221 3,800 -480 Descending FlightAware
05:24PM 41.9680 -88.2070 90° East 192 221 3,800 120 Level FlightAware
05:24PM 41.9680 -88.1840 90° East 189 217 3,900 -240 Climbing FlightAware
05:25PM 41.9680 -88.1460 90° East 194 223 3,600 -840 Descending FlightAware
05:25PM 41.9680 -88.1200 90° East 192 221 3,200 -1,140 Descending FlightAware
05:26PM 41.9680 -88.0790 90° East 191 220 2,600 -1,020 Descending FlightAware
05:26PM 41.9690 -88.0440 88° East 191 220 2,100 -960 Descending FlightAware
05:27PM 41.9690 -88.0040 90° East 166 191 1,500 -900 Descending FlightAware
05:27PM 41.9690 -87.9720 90° East 154 177 1,100 -780 Descending FlightAware
05:28PM 41.9690 -87.9460 90° East 165 190 800 -720 Descending FlightAware
05:28PM 41.9690 -87.9220 90° East 154 177 500 -360 Descending FlightAware
05:28PM 41.9690 -87.9000 90° East 154 177 500  Level FlightAware